Time;durP1;ratioP1;P1;durP2;ratioP2;P2;SDS_P1;SDS_P2;PMS_P1;PMS_P2;Temp;Humidity;BMP_temperature;BMP_pressure;BME280_temperature;BME280_humidity;BME280_pressure;Samples;Min_cycle;Max_cycle;Signal;HPM_P1;HPM_P2
2024/02/22 00:02:35;;;;;;;14.05;4.05;;;13.00;73.90;;;;;;5034307;28;20492;-76
2024/02/22 00:05:20;;;;;;;10.70;3.05;;;13.00;74.00;;;;;;5031726;28;20040;-77
2024/02/22 00:08:04;;;;;;;11.70;3.85;;;13.00;74.10;;;;;;5035399;28;20040;-77
2024/02/22 00:10:48;;;;;;;12.50;3.45;;;13.00;74.20;;;;;;5036720;28;20107;-76
2024/02/22 00:13:34;;;;;;;8.85;2.97;;;13.00;74.30;;;;;;5043626;28;20090;-76
2024/02/22 00:16:19;;;;;;;8.65;2.55;;;13.00;74.30;;;;;;5033121;28;20194;-77
2024/02/22 00:19:04;;;;;;;7.80;2.05;;;13.00;74.40;;;;;;5033393;28;20290;-76
2024/02/22 00:21:49;;;;;;;9.45;2.25;;;13.00;74.40;;;;;;5037702;28;20095;-76
2024/02/22 00:24:33;;;;;;;11.68;2.80;;;13.00;74.50;;;;;;5042168;28;20279;-76
2024/02/22 00:27:19;;;;;;;11.80;3.13;;;13.00;74.50;;;;;;5032410;28;20048;-76
2024/02/22 00:30:12;;;;;;;8.57;2.83;;;13.00;74.50;;;;;;5033644;28;20035;-76
2024/02/22 00:32:56;;;;;;;11.55;3.13;;;13.00;74.50;;;;;;5036326;28;20566;-76
2024/02/22 00:35:42;;;;;;;12.85;2.60;;;13.00;74.50;;;;;;5037661;28;20091;-75
2024/02/22 00:38:27;;;;;;;11.23;2.45;;;13.00;74.50;;;;;;5037353;28;20400;-76
2024/02/22 00:41:11;;;;;;;5.72;2.30;;;13.00;74.50;;;;;;5020754;28;20051;-75
2024/02/22 00:43:56;;;;;;;13.13;3.95;;;13.00;74.50;;;;;;5034385;28;20032;-75
2024/02/22 00:46:40;;;;;;;9.18;3.13;;;13.00;74.50;;;;;;5036713;28;20056;-75
2024/02/22 00:49:26;;;;;;;11.13;2.70;;;13.00;74.50;;;;;;5033929;28;20400;-75
2024/02/22 00:52:10;;;;;;;13.40;2.55;;;13.00;74.50;;;;;;5033286;28;20291;-76
2024/02/22 00:54:55;;;;;;;12.75;3.33;;;13.00;74.50;;;;;;5037902;28;20048;-76
2024/02/22 00:57:40;;;;;;;14.43;3.03;;;13.00;74.40;;;;;;5034177;28;20048;-75
2024/02/22 01:00:24;;;;;;;9.23;2.55;;;13.00;74.50;;;;;;5027141;28;20068;-75
2024/02/22 01:03:09;;;;;;;10.80;2.42;;;13.10;74.60;;;;;;5017650;28;20507;-76
2024/02/22 01:05:53;;;;;;;8.85;2.80;;;13.10;74.60;;;;;;5029350;28;20511;-75
2024/02/22 01:08:38;;;;;;;8.63;2.35;;;13.10;74.60;;;;;;5036709;28;20071;-76
2024/02/22 01:11:23;;;;;;;9.90;2.10;;;13.10;74.60;;;;;;5043051;28;20079;-75
2024/02/22 01:14:07;;;;;;;6.57;2.28;;;13.10;74.60;;;;;;5036564;28;20253;-76
2024/02/22 01:16:52;;;;;;;9.32;2.70;;;13.10;74.50;;;;;;5031325;28;20522;-75
2024/02/22 01:19:36;;;;;;;12.85;2.42;;;13.10;74.60;;;;;;5032440;28;20475;-75
2024/02/22 01:22:24;;;;;;;12.18;2.25;;;13.00;74.30;;;;;;5033326;28;20175;-74
2024/02/22 01:25:10;;;;;;;9.15;2.03;;;13.10;74.40;;;;;;5027806;28;20056;-75
2024/02/22 01:27:55;;;;;;;8.70;2.55;;;13.10;74.40;;;;;;5026034;28;20449;-74
2024/02/22 01:30:40;;;;;;;8.48;2.08;;;13.00;74.20;;;;;;5038068;28;20567;-74
2024/02/22 01:33:25;;;;;;;9.85;3.95;;;13.00;74.20;;;;;;5025603;28;20064;-74
2024/02/22 01:36:11;;;;;;;11.70;3.88;;;13.00;74.20;;;;;;5040910;28;20044;-75
2024/02/22 01:38:55;;;;;;;10.10;1.73;;;13.00;74.20;;;;;;5039335;28;20199;-75
2024/02/22 01:41:40;;;;;;;8.05;1.88;;;13.00;74.20;;;;;;5039779;28;20136;-75
2024/02/22 01:44:30;;;;;;;6.35;1.55;;;13.00;74.20;;;;;;5036001;28;20473;-75
2024/02/22 01:47:15;;;;;;;11.48;2.67;;;13.00;74.30;;;;;;5046024;28;20040;-75
2024/02/22 01:49:59;;;;;;;5.63;2.10;;;12.90;74.10;;;;;;5031993;28;20132;-75
2024/02/22 01:52:44;;;;;;;9.30;2.58;;;12.90;74.10;;;;;;5040491;28;20040;-75
2024/02/22 01:55:28;;;;;;;6.90;2.47;;;12.90;74.10;;;;;;5034766;28;20428;-75
2024/02/22 01:58:14;;;;;;;8.82;2.25;;;12.90;74.20;;;;;;5028546;28;20040;-75
2024/02/22 02:00:59;;;;;;;6.88;2.17;;;12.90;74.20;;;;;;5039445;28;20047;-76
2024/02/22 02:03:44;;;;;;;6.70;1.63;;;12.80;74.10;;;;;;5031483;28;20549;-74
2024/02/22 02:06:29;;;;;;;9.13;1.95;;;12.80;74.10;;;;;;5040473;28;20288;-75
2024/02/22 02:09:14;;;;;;;7.63;2.08;;;12.80;74.10;;;;;;5039940;28;20396;-75
2024/02/22 02:11:58;;;;;;;9.75;2.83;;;12.80;74.20;;;;;;5038861;28;20076;-75
2024/02/22 02:14:43;;;;;;;9.02;2.03;;;12.80;74.20;;;;;;5040525;28;20099;-75
2024/02/22 02:17:28;;;;;;;7.68;2.00;;;12.80;74.20;;;;;;5034228;28;20039;-74
2024/02/22 02:20:14;;;;;;;11.85;3.03;;;12.70;74.10;;;;;;5030076;28;20243;-75
2024/02/22 02:23:54;;;;;;;7.30;1.92;;;12.70;74.10;;;;;;5037686;28;20052;-75
2024/02/22 02:26:39;;;;;;;8.68;1.92;;;12.70;74.10;;;;;;4975380;28;20079;-75
2024/02/22 02:29:24;;;;;;;8.07;2.25;;;12.70;74.10;;;;;;4979441;28;20057;-75
2024/02/22 02:32:09;;;;;;;10.48;3.35;;;12.60;74.00;;;;;;5031035;28;20970;-75
2024/02/22 02:34:53;;;;;;;11.05;2.60;;;12.60;74.00;;;;;;5040146;28;20070;-75
2024/02/22 02:37:37;;;;;;;10.13;1.83;;;12.60;74.50;;;;;;5049716;28;20095;-75
2024/02/22 02:40:22;;;;;;;11.52;3.13;;;12.60;74.00;;;;;;5035760;28;20048;-75
2024/02/22 02:43:07;;;;;;;11.10;3.85;;;12.60;74.10;;;;;;5032630;28;20086;-75
2024/02/22 02:45:52;;;;;;;13.93;3.05;;;12.60;74.60;;;;;;5038500;28;20044;-76
2024/02/22 02:48:37;;;;;;;9.90;2.75;;;12.60;74.10;;;;;;5035967;28;20063;-75
2024/02/22 02:51:21;;;;;;;11.02;2.65;;;12.60;74.10;;;;;;5036343;28;20400;-75
2024/02/22 02:54:05;;;;;;;6.35;2.42;;;12.60;74.10;;;;;;5044411;28;20094;-76
2024/02/22 02:56:50;;;;;;;9.55;2.47;;;12.50;73.90;;;;;;5041024;28;20118;-75
2024/02/22 02:59:35;;;;;;;14.45;3.70;;;12.50;74.00;;;;;;5049991;28;20161;-75
2024/02/22 03:02:20;;;;;;;9.48;2.25;;;12.50;74.00;;;;;;5050623;28;20055;-75
2024/02/22 03:05:05;;;;;;;7.57;2.35;;;12.50;74.00;;;;;;5037580;28;20086;-76
2024/02/22 03:07:50;;;;;;;12.73;2.38;;;12.50;74.00;;;;;;5039887;28;20447;-75
2024/02/22 03:10:36;;;;;;;9.93;2.17;;;12.50;74.10;;;;;;5047064;28;20036;-76
2024/02/22 03:13:21;;;;;;;11.40;3.60;;;12.50;74.10;;;;;;5041805;28;20530;-76
2024/02/22 03:16:06;;;;;;;8.77;2.83;;;12.50;74.10;;;;;;5041621;28;20082;-75
2024/02/22 03:18:52;;;;;;;8.07;2.38;;;12.40;73.90;;;;;;5040110;28;20187;-75
2024/02/22 03:21:37;;;;;;;10.45;2.38;;;12.50;74.10;;;;;;5043760;28;20399;-76
2024/02/22 03:24:21;;;;;;;7.55;2.03;;;12.50;74.10;;;;;;5046906;28;20739;-75
2024/02/22 03:27:10;;;;;;;10.23;3.03;;;12.50;74.10;;;;;;5045090;28;20044;-75
2024/02/22 03:29:55;;;;;;;9.82;3.13;;;12.50;74.30;;;;;;5042215;28;20853;-75
2024/02/22 03:32:41;;;;;;;10.85;2.30;;;12.50;74.10;;;;;;5032542;28;20061;-76
2024/02/22 03:35:25;;;;;;;8.82;2.30;;;12.50;74.10;;;;;;5039989;28;20442;-75
2024/02/22 03:38:09;;;;;;;11.10;2.75;;;12.60;74.30;;;;;;5040890;28;20404;-75
2024/02/22 03:40:54;;;;;;;10.05;2.63;;;12.60;74.30;;;;;;5042869;28;20098;-76
2024/02/22 03:43:39;;;;;;;12.82;3.13;;;12.60;74.20;;;;;;5038039;28;20526;-75
2024/02/22 03:46:23;;;;;;;11.27;2.63;;;12.60;74.20;;;;;;5046667;28;20072;-77
2024/02/22 03:49:08;;;;;;;9.23;2.67;;;12.60;74.70;;;;;;5040971;28;20041;-75
2024/02/22 03:51:52;;;;;;;8.52;2.80;;;12.60;74.20;;;;;;5037076;28;20086;-76
2024/02/22 03:54:39;;;;;;;12.10;2.40;;;12.60;74.20;;;;;;5045210;28;20039;-76
2024/02/22 03:57:24;;;;;;;8.57;2.35;;;12.60;74.20;;;;;;5040816;28;20071;-77
2024/02/22 04:00:09;;;;;;;8.60;2.55;;;12.60;74.10;;;;;;5035571;28;20047;-75
2024/02/22 04:02:59;;;;;;;6.55;1.88;;;12.60;74.20;;;;;;5034985;28;20564;-76
2024/02/22 04:05:45;;;;;;;5.70;2.03;;;12.70;74.30;;;;;;5046055;28;21742;-74
2024/02/22 04:08:29;;;;;;;8.13;2.17;;;12.60;74.10;;;;;;5044813;28;20102;-74
2024/02/22 04:11:13;;;;;;;9.45;2.72;;;12.70;74.30;;;;;;5044883;28;20094;-75
2024/02/22 04:13:58;;;;;;;7.32;2.40;;;12.70;74.20;;;;;;5043564;28;20085;-74
2024/02/22 04:16:43;;;;;;;6.47;2.67;;;12.70;74.20;;;;;;5042283;28;20136;-74
2024/02/22 04:19:28;;;;;;;8.38;2.10;;;12.70;74.20;;;;;;5038442;28;20083;-75
2024/02/22 04:22:12;;;;;;;5.15;2.03;;;12.70;74.20;;;;;;5057915;28;20075;-75
2024/02/22 04:24:58;;;;;;;7.18;1.73;;;12.80;74.30;;;;;;5038242;28;20112;-75
2024/02/22 04:27:42;;;;;;;5.63;1.95;;;12.70;74.10;;;;;;5044183;28;20094;-75
2024/02/22 04:30:27;;;;;;;8.50;1.77;;;12.80;74.30;;;;;;5046229;28;20134;-75
2024/02/22 04:33:14;;;;;;;12.32;2.72;;;12.80;74.30;;;;;;5034319;28;20055;-75
2024/02/22 04:36:00;;;;;;;8.75;1.88;;;12.80;74.20;;;;;;5036306;28;20044;-75
2024/02/22 04:38:44;;;;;;;9.05;2.13;;;12.80;74.70;;;;;;5040260;28;20043;-75
2024/02/22 04:41:29;;;;;;;10.40;2.55;;;12.80;74.20;;;;;;5045340;28;20139;-75
2024/02/22 04:44:13;;;;;;;8.38;1.90;;;12.80;74.20;;;;;;5037567;28;20035;-75
2024/02/22 04:46:58;;;;;;;7.18;1.70;;;12.80;74.20;;;;;;5038125;28;20117;-75
2024/02/22 04:49:43;;;;;;;5.45;1.42;;;12.80;74.20;;;;;;5034727;28;20578;-75
2024/02/22 04:52:27;;;;;;;4.63;1.60;;;12.80;74.20;;;;;;5039836;28;20090;-75
2024/02/22 04:55:12;;;;;;;5.70;1.70;;;12.80;74.20;;;;;;5035398;28;20043;-76
2024/02/22 04:57:57;;;;;;;7.50;1.30;;;12.90;74.40;;;;;;5028949;28;20040;-76
2024/02/22 05:00:41;;;;;;;7.78;1.60;;;12.80;74.20;;;;;;5042967;28;20086;-74
2024/02/22 05:03:26;;;;;;;5.57;1.55;;;12.90;74.30;;;;;;5052557;28;20083;-75
2024/02/22 05:06:10;;;;;;;4.45;1.40;;;12.90;74.30;;;;;;5045988;28;20074;-74
2024/02/22 05:08:55;;;;;;;7.78;2.08;;;12.80;74.20;;;;;;5027916;28;20083;-74
2024/02/22 05:11:47;;;;;;;3.30;1.20;;;12.90;74.30;;;;;;5049047;28;20040;-76
2024/02/22 05:14:32;;;;;;;4.47;1.33;;;12.90;74.40;;;;;;5046598;28;20128;-76
2024/02/22 05:17:17;;;;;;;5.53;1.63;;;12.90;74.40;;;;;;5049432;28;20511;-76
2024/02/22 05:20:02;;;;;;;8.35;1.73;;;12.90;74.40;;;;;;5044176;28;20082;-75
2024/02/22 05:22:46;;;;;;;8.02;2.47;;;12.90;74.40;;;;;;5049918;28;20124;-75
2024/02/22 05:25:33;;;;;;;6.13;1.40;;;12.90;74.40;;;;;;5051730;28;20032;-76
2024/02/22 05:28:18;;;;;;;5.13;1.95;;;12.90;74.50;;;;;;5047206;28;20040;-74
2024/02/22 05:31:03;;;;;;;5.22;1.90;;;12.80;74.30;;;;;;5046100;28;20036;-76
2024/02/22 05:33:47;;;;;;;4.88;1.55;;;12.90;74.60;;;;;;5051771;28;20031;-76
2024/02/22 05:36:32;;;;;;;3.63;1.10;;;12.90;74.60;;;;;;5044460;28;20499;-76
2024/02/22 05:39:18;;;;;;;3.58;1.40;;;12.90;74.60;;;;;;5040687;28;20099;-76
2024/02/22 05:42:03;;;;;;;3.33;1.15;;;12.90;74.70;;;;;;5051878;28;20067;-76
2024/02/22 05:44:47;;;;;;;3.80;1.08;;;13.00;74.90;;;;;;5046527;28;20044;-76
2024/02/22 05:47:31;;;;;;;2.50;1.25;;;13.00;74.90;;;;;;5043954;28;20040;-77
2024/02/22 05:50:15;;;;;;;2.95;0.90;;;13.00;74.90;;;;;;5034643;28;20072;-76
2024/02/22 05:53:00;;;;;;;3.92;1.02;;;13.00;75.00;;;;;;5041548;28;20032;-76
2024/02/22 05:55:45;;;;;;;4.53;1.33;;;13.00;74.90;;;;;;5044585;28;20136;-76
2024/02/22 05:58:29;;;;;;;3.35;1.00;;;13.00;75.00;;;;;;5046761;28;20416;-76
2024/02/22 06:01:14;;;;;;;3.53;1.00;;;13.00;75.00;;;;;;5045647;28;20044;-76
2024/02/22 06:03:59;;;;;;;2.75;0.90;;;13.10;75.10;;;;;;5042457;28;20094;-76
2024/02/22 06:06:43;;;;;;;4.15;1.00;;;13.10;75.20;;;;;;5043228;28;20574;-74
2024/02/22 06:09:28;;;;;;;4.63;1.00;;;13.10;75.10;;;;;;5044535;28;20110;-74
2024/02/22 06:12:14;;;;;;;2.38;0.88;;;13.10;75.20;;;;;;5032729;28;20048;-74
2024/02/22 06:14:58;;;;;;;1.70;0.90;;;13.20;75.30;;;;;;5036104;28;20283;-75
2024/02/22 06:17:43;;;;;;;2.67;0.88;;;13.20;75.40;;;;;;5034978;28;20500;-75
2024/02/22 06:20:27;;;;;;;2.63;0.90;;;13.20;75.40;;;;;;5036751;28;20036;-76
2024/02/22 06:23:14;;;;;;;2.85;1.00;;;13.20;75.40;;;;;;5037498;28;20040;-74
2024/02/22 06:25:58;;;;;;;2.33;0.80;;;13.30;75.60;;;;;;5039146;28;20063;-74
2024/02/22 06:28:43;;;;;;;3.17;1.40;;;13.20;75.40;;;;;;5033174;28;20102;-75
2024/02/22 06:31:27;;;;;;;2.63;1.10;;;13.30;75.60;;;;;;5038569;28;20110;-75
2024/02/22 06:34:11;;;;;;;1.35;0.80;;;13.30;75.60;;;;;;5036705;28;20040;-74
2024/02/22 06:36:56;;;;;;;3.10;1.20;;;13.30;75.60;;;;;;5031806;28;20075;-75
2024/02/22 06:39:40;;;;;;;3.15;1.40;;;13.30;75.60;;;;;;5034418;28;20056;-74
2024/02/22 06:42:26;;;;;;;3.22;0.77;;;13.40;75.80;;;;;;5028534;28;20457;-74
2024/02/22 06:45:10;;;;;;;1.30;0.43;;;13.40;75.80;;;;;;5032932;28;20400;-74
2024/02/22 06:47:55;;;;;;;3.33;0.80;;;13.50;76.00;;;;;;5036316;28;20135;-73
2024/02/22 06:50:40;;;;;;;1.95;0.80;;;13.50;76.00;;;;;;5028605;28;20052;-73
2024/02/22 06:53:29;;;;;;;1.73;0.70;;;13.50;75.90;;;;;;5036505;28;20443;-74
2024/02/22 06:56:13;;;;;;;3.75;0.75;;;13.50;76.00;;;;;;5033802;28;20420;-73
2024/02/22 06:58:58;;;;;;;1.55;0.50;;;13.50;76.50;;;;;;5035434;28;20310;-74
2024/02/22 07:01:43;;;;;;;2.00;0.70;;;13.60;76.10;;;;;;5037976;28;20264;-74
2024/02/22 07:04:28;;;;;;;2.10;0.98;;;13.60;76.10;;;;;;5035010;28;20032;-74
2024/02/22 07:07:13;;;;;;;2.55;0.90;;;13.60;76.60;;;;;;5036197;28;20199;-74
2024/02/22 07:09:58;;;;;;;2.22;1.10;;;13.60;76.70;;;;;;5037445;28;20135;-74
2024/02/22 07:12:46;;;;;;;3.65;0.60;;;13.60;76.30;;;;;;5022283;28;20032;-74
2024/02/22 07:15:31;;;;;;;18.85;4.85;;;13.60;76.30;;;;;;5032557;28;20044;-74
2024/02/22 07:18:16;;;;;;;29.05;7.40;;;13.60;76.50;;;;;;5033363;28;20063;-74
2024/02/22 07:21:03;;;;;;;49.80;11.55;;;13.60;76.70;;;;;;5036138;28;20475;-74
2024/02/22 07:23:47;;;;;;;65.18;15.52;;;13.70;77.00;;;;;;5035028;28;20726;-75
2024/02/22 07:26:32;;;;;;;48.42;13.55;;;13.70;77.10;;;;;;5036573;28;20040;-77
2024/02/22 07:29:17;;;;;;;47.42;13.50;;;13.70;77.20;;;;;;5034333;28;20051;-75
2024/02/22 07:32:03;;;;;;;45.25;11.75;;;13.70;77.20;;;;;;5040348;28;20067;-77
2024/02/22 07:34:47;;;;;;;36.38;10.68;;;13.80;77.40;;;;;;5034682;28;20476;-73
2024/02/22 07:37:33;;;;;;;35.88;10.13;;;13.70;77.20;;;;;;5036107;28;20122;-76
2024/02/22 07:40:18;;;;;;;39.35;10.38;;;13.80;77.40;;;;;;5035059;28;20063;-77
2024/02/22 07:43:03;;;;;;;31.38;9.05;;;13.80;77.40;;;;;;5030491;28;20102;-78
2024/02/22 07:45:47;;;;;;;38.42;10.82;;;13.70;77.10;;;;;;5029031;28;20134;-77
2024/02/22 07:48:32;;;;;;;27.20;8.45;;;13.70;77.10;;;;;;5020676;28;20048;-77
2024/02/22 07:51:16;;;;;;;25.83;7.38;;;13.60;76.80;;;;;;5033673;28;20090;-77
2024/02/22 07:54:01;;;;;;;17.83;6.53;;;13.60;76.70;;;;;;5034880;28;20116;-77
2024/02/22 07:56:46;;;;;;;26.02;7.30;;;13.50;76.50;;;;;;5033725;28;20598;-79
2024/02/22 07:59:30;;;;;;;22.45;6.03;;;13.40;76.30;;;;;;5033909;28;20093;-77
2024/02/22 08:02:15;;;;;;;18.30;5.35;;;13.30;76.10;;;;;;5032797;28;20118;-77
2024/02/22 08:05:00;;;;;;;20.77;7.05;;;13.20;76.00;;;;;;5033877;28;20577;-77
2024/02/22 08:07:44;;;;;;;16.00;4.68;;;13.20;76.00;;;;;;5034055;28;20087;-77
2024/02/22 08:10:29;;;;;;;16.67;5.32;;;13.10;75.80;;;;;;5033211;28;20067;-78
2024/02/22 08:13:13;;;;;;;10.65;4.45;;;13.00;75.60;;;;;;5025776;28;20390;-78
2024/02/22 08:16:06;;;;;;;14.95;3.70;;;13.00;75.60;;;;;;5033228;28;20095;-78
2024/02/22 08:18:50;;;;;;;10.53;3.63;;;12.90;75.40;;;;;;5035446;28;20083;-77
2024/02/22 08:21:36;;;;;;;6.15;2.75;;;12.90;75.40;;;;;;5034674;28;20538;-77
2024/02/22 08:24:23;;;;;;;9.80;3.40;;;12.90;75.30;;;;;;5031534;28;20427;-77
2024/02/22 08:27:10;;;;;;;11.02;3.30;;;12.90;75.20;;;;;;5031656;28;20518;-79
2024/02/22 08:29:54;;;;;;;6.85;2.63;;;12.90;75.00;;;;;;5030555;28;20059;-78
2024/02/22 08:32:39;;;;;;;7.80;2.70;;;13.00;75.00;;;;;;5033276;28;20399;-79
2024/02/22 08:35:23;;;;;;;10.25;3.00;;;13.00;74.80;;;;;;5033338;28;20035;-79
2024/02/22 08:38:09;;;;;;;3.90;2.13;;;13.00;74.70;;;;;;5018920;28;20435;-79
2024/02/22 08:40:54;;;;;;;6.93;2.83;;;13.00;74.50;;;;;;5036306;28;20075;-79
2024/02/22 08:43:41;;;;;;;3.83;1.80;;;13.00;74.30;;;;;;5027861;28;20110;-79
2024/02/22 08:46:30;;;;;;;5.35;2.30;;;13.00;74.20;;;;;;5034082;28;20036;-78
2024/02/22 08:49:15;;;;;;;5.15;1.85;;;13.00;74.10;;;;;;5030006;28;20063;-78
2024/02/22 08:52:03;;;;;;;5.32;1.80;;;13.00;74.00;;;;;;5020656;28;20730;-78
2024/02/22 08:54:48;;;;;;;4.13;1.85;;;12.90;73.70;;;;;;5034355;28;20588;-78
2024/02/22 08:57:35;;;;;;;5.82;1.80;;;12.90;73.70;;;;;;5030227;28;20094;-78
2024/02/22 09:00:20;;;;;;;5.32;1.60;;;12.90;73.70;;;;;;5028822;28;20044;-78
2024/02/22 09:03:05;;;;;;;6.30;2.55;;;12.80;73.50;;;;;;5036224;28;20594;-78
2024/02/22 09:05:50;;;;;;;4.55;1.77;;;12.80;73.80;;;;;;5034018;28;20044;-77
2024/02/22 09:08:37;;;;;;;3.75;1.40;;;12.90;74.50;;;;;;5036099;28;20426;-77
2024/02/22 09:11:22;;;;;;;4.90;1.33;;;13.00;74.80;;;;;;5030665;28;20043;-77
2024/02/22 09:14:06;;;;;;;5.18;1.38;;;13.20;75.10;;;;;;5023875;28;20102;-77
2024/02/22 09:16:50;;;;;;;6.00;1.23;;;13.30;75.10;;;;;;5035819;28;20504;-78
2024/02/22 09:19:35;;;;;;;2.88;1.17;;;13.50;75.30;;;;;;5036347;28;20562;-75
2024/02/22 09:22:20;;;;;;;2.40;0.93;;;13.60;75.20;;;;;;5014183;28;20099;-76
2024/02/22 09:25:09;;;;;;;3.17;1.15;;;13.70;75.00;;;;;;5024114;28;20140;-76
2024/02/22 09:27:53;;;;;;;4.75;1.00;;;13.80;75.00;;;;;;5026722;28;20048;-77
2024/02/22 09:30:38;;;;;;;3.45;0.90;;;13.80;74.60;;;;;;5030050;28;20120;-76
2024/02/22 09:33:23;;;;;;;2.58;0.80;;;13.90;74.70;;;;;;5031444;28;20098;-75
2024/02/22 09:36:08;;;;;;;1.35;0.75;;;13.90;74.50;;;;;;5031386;28;20434;-75
2024/02/22 09:38:52;;;;;;;3.28;1.23;;;13.90;74.40;;;;;;5031929;28;20044;-75
2024/02/22 09:41:37;;;;;;;2.17;1.02;;;14.00;74.40;;;;;;5034416;28;20075;-75
2024/02/22 09:44:22;;;;;;;1.23;0.80;;;14.00;74.20;;;;;;5032700;28;20052;-75
2024/02/22 09:47:08;;;;;;;1.10;0.47;;;14.00;74.10;;;;;;5029343;28;20052;-76
2024/02/22 09:49:53;;;;;;;1.98;0.60;;;14.00;73.90;;;;;;5032138;28;20086;-75
2024/02/22 09:52:39;;;;;;;2.53;0.80;;;14.10;74.00;;;;;;5035477;28;20055;-77
2024/02/22 09:55:24;;;;;;;1.20;0.68;;;14.10;73.80;;;;;;5028598;28;20436;-76
2024/02/22 09:58:09;;;;;;;2.30;0.68;;;14.10;73.60;;;;;;5032771;28;20438;-75
2024/02/22 10:00:53;;;;;;;0.50;0.35;;;14.10;73.50;;;;;;5033560;28;20190;-74
2024/02/22 10:03:40;;;;;;;0.75;0.40;;;14.10;73.30;;;;;;5032132;28;20106;-77
2024/02/22 10:06:26;;;;;;;1.13;0.40;;;14.10;73.20;;;;;;5035949;28;20727;-76
2024/02/22 10:09:10;;;;;;;0.85;0.40;;;14.10;73.20;;;;;;5035343;28;20048;-77
2024/02/22 10:11:55;;;;;;;0.90;0.40;;;14.10;73.00;;;;;;5033644;28;20163;-75
2024/02/22 10:14:40;;;;;;;1.83;0.30;;;14.10;72.90;;;;;;5028690;28;20471;-75
2024/02/22 10:17:29;;;;;;;2.75;1.20;;;14.10;72.80;;;;;;5034932;28;20196;-74
2024/02/22 10:20:14;;;;;;;0.57;0.30;;;14.00;72.50;;;;;;5028730;28;20110;-75
2024/02/22 10:23:09;;;;;;;2.08;0.65;;;14.10;72.60;;;;;;5041271;28;20059;-75
2024/02/22 10:26:03;;;;;;;1.17;0.50;;;14.10;72.40;;;;;;5032022;28;20048;-77
2024/02/22 10:29:07;;;;;;;1.55;0.50;;;14.10;72.30;;;;;;5028412;28;20800;-76
2024/02/22 10:31:52;;;;;;;2.35;0.65;;;14.10;72.20;;;;;;5035282;28;20044;-76
2024/02/22 10:34:37;;;;;;;0.80;0.30;;;14.10;72.10;;;;;;5036365;28;20286;-76
2024/02/22 10:37:21;;;;;;;0.95;0.50;;;14.20;72.20;;;;;;5032666;28;20048;-76
2024/02/22 10:40:09;;;;;;;0.43;0.32;;;14.20;72.00;;;;;;5031715;28;20287;-76
2024/02/22 10:42:54;;;;;;;1.23;0.55;;;14.20;71.90;;;;;;5034995;28;20278;-76
2024/02/22 10:45:40;;;;;;;1.40;0.30;;;14.20;71.80;;;;;;5035492;28;20265;-76
2024/02/22 10:48:30;;;;;;;0.73;0.40;;;14.20;71.70;;;;;;5033817;28;20103;-76
2024/02/22 10:51:18;;;;;;;1.20;0.40;;;14.20;71.50;;;;;;5024682;28;20132;-76
2024/02/22 10:54:03;;;;;;;2.10;0.40;;;14.20;71.40;;;;;;5027397;28;20283;-76
2024/02/22 10:56:49;;;;;;;0.68;0.50;;;14.30;71.50;;;;;;5028511;28;20059;-76
2024/02/22 10:59:35;;;;;;;1.00;0.70;;;14.20;71.20;;;;;;5034038;28;20095;-76
2024/02/22 11:02:21;;;;;;;1.42;0.55;;;14.20;71.10;;;;;;5034212;28;20056;-77
2024/02/22 11:05:09;;;;;;;0.93;0.43;;;14.20;71.00;;;;;;5034516;28;20043;-76
2024/02/22 11:07:55;;;;;;;0.82;0.50;;;14.20;70.90;;;;;;5047022;28;20114;-76
2024/02/22 11:10:43;;;;;;;1.50;0.60;;;14.20;70.90;;;;;;5032188;28;20289;-77
2024/02/22 11:13:28;;;;;;;0.90;0.40;;;14.10;70.70;;;;;;5031977;28;20493;-76
2024/02/22 11:16:15;;;;;;;2.28;0.80;;;14.10;70.70;;;;;;5034423;28;20040;-76
2024/02/22 11:19:24;;;;;;;1.63;0.82;;;14.20;70.70;;;;;;5037226;28;20077;-76
2024/02/22 11:22:18;;;;;;;2.38;0.70;;;14.20;70.60;;;;;;5026185;28;20059;-77
2024/02/22 11:25:06;;;;;;;0.55;0.47;;;14.20;70.50;;;;;;5033555;28;20139;-76
2024/02/22 11:27:59;;;;;;;0.50;0.40;;;14.20;70.40;;;;;;5029428;28;20052;-76
2024/02/22 11:30:46;;;;;;;1.08;0.60;;;14.20;70.20;;;;;;5040542;28;20090;-76
2024/02/22 11:33:31;;;;;;;0.63;0.40;;;14.20;70.10;;;;;;5039642;28;20048;-77
2024/02/22 11:36:17;;;;;;;1.40;0.98;;;14.20;70.10;;;;;;5032279;28;20210;-76
2024/02/22 11:39:06;;;;;;;0.70;0.50;;;14.30;70.10;;;;;;5035499;28;20399;-77
2024/02/22 11:41:51;;;;;;;0.50;0.30;;;14.30;70.10;;;;;;5038681;28;20055;-77
2024/02/22 11:44:35;;;;;;;0.85;0.60;;;14.30;70.00;;;;;;5031159;28;20036;-77
2024/02/22 11:47:20;;;;;;;0.82;0.60;;;14.30;69.90;;;;;;5043209;28;20056;-76
2024/02/22 11:50:05;;;;;;;0.65;0.30;;;14.30;69.80;;;;;;5030601;28;20507;-77
2024/02/22 11:52:50;;;;;;;0.47;0.32;;;14.30;69.70;;;;;;5023502;28;20090;-76
2024/02/22 11:55:34;;;;;;;1.45;0.50;;;14.40;69.90;;;;;;5024327;28;20461;-76
2024/02/22 11:58:20;;;;;;;1.15;0.45;;;14.40;69.80;;;;;;5018828;28;20107;-76
2024/02/22 12:01:05;;;;;;;1.95;0.47;;;14.40;69.60;;;;;;5022036;28;20044;-77
2024/02/22 12:03:51;;;;;;;1.73;0.85;;;14.40;69.50;;;;;;5020497;28;20059;-77
2024/02/22 12:06:36;;;;;;;0.77;0.40;;;14.40;69.50;;;;;;5035545;28;20537;-77
2024/02/22 12:09:21;;;;;;;0.77;0.50;;;14.40;69.40;;;;;;5033788;28;20137;-78
2024/02/22 12:12:07;;;;;;;0.80;0.40;;;14.40;69.40;;;;;;5036088;28;20254;-78
2024/02/22 12:14:59;;;;;;;1.35;0.50;;;14.40;69.40;;;;;;5030741;28;20036;-78
2024/02/22 12:17:43;;;;;;;0.93;0.50;;;14.30;69.10;;;;;;5038709;28;20065;-77
2024/02/22 12:20:28;;;;;;;1.83;0.82;;;14.30;69.20;;;;;;5036897;28;20068;-78
2024/02/22 12:23:12;;;;;;;0.82;0.50;;;14.30;69.20;;;;;;5039953;28;20093;-78
2024/02/22 12:26:06;;;;;;;1.70;0.57;;;14.30;69.20;;;;;;5043909;28;20102;-78
2024/02/22 12:28:53;;;;;;;1.00;0.52;;;14.30;69.10;;;;;;5030449;28;20543;-79
2024/02/22 12:31:38;;;;;;;1.42;0.40;;;14.20;69.00;;;;;;5038512;28;20047;-79
2024/02/22 12:34:22;;;;;;;1.30;0.57;;;14.20;69.00;;;;;;5032006;28;20122;-79
2024/02/22 12:37:08;;;;;;;2.00;0.50;;;14.10;68.80;;;;;;5032939;28;20099;-78
2024/02/22 12:39:52;;;;;;;0.50;0.45;;;14.10;68.80;;;;;;5027301;28;20057;-78
2024/02/22 12:42:37;;;;;;;1.92;1.58;;;14.00;68.60;;;;;;5028529;28;20111;-78
2024/02/22 12:45:22;;;;;;;2.72;0.80;;;14.00;68.70;;;;;;5029395;28;20051;-78
2024/02/22 12:48:07;;;;;;;0.93;0.50;;;14.00;68.70;;;;;;5033893;28;20051;-78
2024/02/22 12:50:51;;;;;;;2.33;0.43;;;13.90;68.50;;;;;;5030357;28;20047;-77
2024/02/22 12:53:36;;;;;;;0.43;0.40;;;13.90;68.50;;;;;;5041040;28;20106;-78
2024/02/22 12:56:21;;;;;;;1.73;0.75;;;13.90;68.50;;;;;;5025282;28;20550;-78
2024/02/22 12:59:09;;;;;;;1.42;0.47;;;13.80;68.40;;;;;;5035629;28;20191;-78
2024/02/22 13:01:54;;;;;;;0.98;0.65;;;13.80;68.40;;;;;;5031571;28;20171;-78
2024/02/22 13:04:38;;;;;;;3.15;0.40;;;13.80;68.40;;;;;;5025192;28;20052;-78
2024/02/22 13:07:22;;;;;;;2.25;0.50;;;13.80;68.50;;;;;;5036427;28;20156;-78
2024/02/22 13:10:08;;;;;;;1.83;0.40;;;13.90;68.70;;;;;;5038264;28;20130;-78
2024/02/22 13:12:53;;;;;;;1.10;0.30;;;13.80;68.40;;;;;;5035311;28;20099;-78
2024/02/22 13:15:38;;;;;;;1.80;0.63;;;13.80;68.50;;;;;;5021096;28;20051;-78
2024/02/22 13:18:22;;;;;;;0.60;0.30;;;13.90;68.60;;;;;;5034709;28;20517;-78
2024/02/22 13:21:08;;;;;;;0.80;0.32;;;13.80;68.40;;;;;;5043004;28;20220;-78
2024/02/22 13:23:53;;;;;;;0.43;0.30;;;13.80;68.40;;;;;;5043092;28;20106;-78
2024/02/22 13:26:37;;;;;;;1.65;0.40;;;13.80;68.30;;;;;;5036951;28;20032;-78
2024/02/22 13:29:22;;;;;;;1.35;0.20;;;13.80;68.30;;;;;;5033894;28;20503;-83
2024/02/22 13:32:10;;;;;;;0.93;0.40;;;13.80;68.20;;;;;;5037878;28;20439;-79
2024/02/22 13:34:55;;;;;;;0.30;0.30;;;13.80;68.20;;;;;;5037102;28;20052;-79
2024/02/22 13:37:39;;;;;;;5.07;0.75;;;13.80;68.10;;;;;;5055792;28;20131;-77
2024/02/22 13:40:24;;;;;;;5.57;1.48;;;13.80;68.10;;;;;;5037466;28;20091;-78
2024/02/22 13:43:09;;;;;;;8.65;2.33;;;13.70;68.00;;;;;;5040353;28;20047;-78
2024/02/22 13:45:54;;;;;;;7.78;2.35;;;13.70;68.10;;;;;;5037326;28;20083;-77
2024/02/22 13:48:40;;;;;;;11.25;2.20;;;13.70;68.10;;;;;;5021941;28;20076;-77
2024/02/22 13:51:24;;;;;;;9.70;2.30;;;13.70;68.20;;;;;;5034654;28;20044;-78
2024/02/22 13:54:09;;;;;;;6.68;1.73;;;13.70;68.30;;;;;;5023905;28;20422;-77
2024/02/22 13:56:53;;;;;;;6.43;2.13;;;13.60;68.10;;;;;;5030836;28;20036;-77
2024/02/22 13:59:39;;;;;;;3.90;1.50;;;13.60;68.10;;;;;;5036176;28;20098;-77
2024/02/22 14:02:23;;;;;;;5.00;1.63;;;13.60;68.20;;;;;;5040232;28;20087;-77
2024/02/22 14:05:10;;;;;;;4.20;1.55;;;13.60;68.20;;;;;;5030426;28;20122;-77
2024/02/22 14:07:57;;;;;;;4.60;1.23;;;13.60;68.20;;;;;;5038069;28;20064;-77
2024/02/22 14:10:42;;;;;;;4.22;1.40;;;13.60;68.30;;;;;;5038108;28;20068;-77
2024/02/22 14:13:28;;;;;;;2.20;1.17;;;13.60;68.30;;;;;;5036688;28;20040;-77
2024/02/22 14:16:12;;;;;;;1.70;0.90;;;13.50;68.20;;;;;;5031633;28;20040;-77
2024/02/22 14:18:57;;;;;;;3.97;0.95;;;13.50;68.20;;;;;;5034956;28;20090;-76
2024/02/22 14:21:42;;;;;;;1.30;0.80;;;13.50;68.20;;;;;;5039121;28;20052;-76